KYKM/YKM METAR and TAF weather

Enter ICAO airport designator
Station Type Date Time Source
KYKM METAR 2020/08/10 18:53 UTC NOAA

KYKM 101853Z 16006KT 10SM CLR 29/07 A2999 RMK AO2 SLP148 T02940067


Station Type Date Time Source
KYKM Decoded METAR 2020/08/10 18:53 UTC NOAA

YAKIMA AIR TERMINAL, WA, United States (KYKM) 46-34N 120-32W 324M
Aug 10, 2020 - 02:53 PM EDT / 2020.08.10 1853 UTC
Wind: from the SSE (160 degrees) at 7 MPH (6 KT):0
Visibility: 10 mile(s):0
Sky conditions: clear
Temperature: 84.9 F (29.4 C)
Dew Point: 44.1 F (6.7 C)
Relative Humidity: 23%
Pressure (altimeter): 29.99 in. Hg (1015 hPa)
ob: KYKM 101853Z 16006KT 10SM CLR 29/07 A2999 RMK AO2 SLP148 T02940067
cycle: 19

Station Type Date Time Source
KYKM TAF 2020/08/10 18:22 UTC NOAA

TAF KYKM 101720Z 1018/1118 VRB03KT P6SM SKC
FM102100 21005KT P6SM SKC
FM110300 28010KT P6SM SKC

Example: see airport list